Time;durP1;ratioP1;P1;durP2;ratioP2;P2;SDS_P1;SDS_P2;PMS_P1;PMS_P2;Temp;Humidity;BMP_temperature;BMP_pressure;BME280_temperature;BME280_humidity;BME280_pressure;Samples;Min_cycle;Max_cycle;Signal;HPM_P1;HPM_P2
2023/02/19 00:00:57;;;;;;;3.33;3.03;;;15.30;68.60;;;;;;5029881;28;20934;-47
2023/02/19 00:03:23;;;;;;;3.17;2.87;;;15.30;67.70;;;;;;5030279;28;20424;-49
2023/02/19 00:05:49;;;;;;;3.47;3.17;;;15.30;67.60;;;;;;5028646;28;20501;-49
2023/02/19 00:08:14;;;;;;;3.60;3.30;;;15.40;67.40;;;;;;5029995;28;20193;-51
2023/02/19 00:10:40;;;;;;;3.43;3.13;;;15.40;67.30;;;;;;5030284;28;20603;-47
2023/02/19 00:13:05;;;;;;;3.50;3.13;;;15.30;67.30;;;;;;5030192;28;20196;-48
2023/02/19 00:15:32;;;;;;;3.60;3.30;;;15.30;67.60;;;;;;5029739;28;20197;-49
2023/02/19 00:17:57;;;;;;;3.07;2.77;;;15.20;67.70;;;;;;5030198;28;20189;-51
2023/02/19 00:20:23;;;;;;;3.20;2.90;;;15.30;67.90;;;;;;5030400;28;20432;-48
2023/02/19 00:22:49;;;;;;;3.67;3.37;;;15.30;67.80;;;;;;5029741;28;20190;-47
2023/02/19 00:25:14;;;;;;;3.30;2.90;;;15.30;67.60;;;;;;5027978;28;20716;-47
2023/02/19 00:27:40;;;;;;;3.13;2.80;;;15.30;67.40;;;;;;5029918;28;20219;-51
2023/02/19 00:30:06;;;;;;;3.13;2.83;;;15.40;68.20;;;;;;5029961;28;20192;-51
2023/02/19 00:32:31;;;;;;;2.70;2.33;;;15.40;67.50;;;;;;5032315;28;20225;-49
2023/02/19 00:34:57;;;;;;;2.90;2.70;;;15.40;67.20;;;;;;5038104;28;20432;-47
2023/02/19 00:37:22;;;;;;;2.60;2.40;;;15.40;67.10;;;;;;5029914;28;20212;-49
2023/02/19 00:39:48;;;;;;;3.37;3.17;;;15.40;67.10;;;;;;5029913;28;20195;-50
2023/02/19 00:42:14;;;;;;;2.73;2.53;;;15.40;67.00;;;;;;5029675;28;20207;-51
2023/02/19 00:44:39;;;;;;;3.07;2.80;;;15.40;67.20;;;;;;5029612;28;20197;-49
2023/02/19 00:47:05;;;;;;;3.50;3.20;;;15.40;67.10;;;;;;5029882;28;20629;-47
2023/02/19 00:49:31;;;;;;;2.90;2.70;;;15.40;67.30;;;;;;5030025;28;20189;-50
2023/02/19 00:51:56;;;;;;;3.53;3.23;;;15.40;67.30;;;;;;5027945;28;20644;-52
2023/02/19 00:54:22;;;;;;;2.90;2.70;;;15.40;67.30;;;;;;5029562;28;20223;-51
2023/02/19 00:56:48;;;;;;;4.10;2.53;;;15.50;67.30;;;;;;5029683;28;20247;-47
2023/02/19 00:59:14;;;;;;;3.73;3.43;;;15.50;67.20;;;;;;5029685;28;20201;-47
2023/02/19 01:01:40;;;;;;;3.80;3.23;;;15.40;67.40;;;;;;5029510;28;20787;-51
2023/02/19 01:04:06;;;;;;;3.20;3.00;;;15.50;67.30;;;;;;5029793;28;20876;-47
2023/02/19 01:06:33;;;;;;;3.20;3.00;;;15.50;67.10;;;;;;5029465;28;20438;-48
2023/02/19 01:08:59;;;;;;;2.87;2.67;;;15.50;67.00;;;;;;5029541;28;20432;-51
2023/02/19 01:11:24;;;;;;;3.10;2.90;;;15.50;67.00;;;;;;5029681;28;20821;-49
2023/02/19 01:13:50;;;;;;;3.30;3.00;;;15.50;66.90;;;;;;5031748;28;20196;-49
2023/02/19 01:16:22;;;;;;;3.30;3.00;;;15.50;66.90;;;;;;5032823;28;20193;-49
2023/02/19 01:18:48;;;;;;;3.10;2.90;;;15.60;66.80;;;;;;5031666;28;20255;-49
2023/02/19 01:21:17;;;;;;;7.40;3.40;;;15.60;66.70;;;;;;5033288;28;20835;-48
2023/02/19 01:23:43;;;;;;;4.73;3.43;;;15.60;66.80;;;;;;5033302;28;20763;-47
2023/02/19 01:26:12;;;;;;;3.10;2.90;;;15.60;66.60;;;;;;5033449;28;20432;-49
2023/02/19 01:28:38;;;;;;;3.50;3.20;;;15.70;66.60;;;;;;5033302;28;20289;-49
2023/02/19 01:31:05;;;;;;;3.73;3.43;;;15.70;66.50;;;;;;5032759;28;20939;-48
2023/02/19 01:33:32;;;;;;;3.70;3.40;;;15.60;66.40;;;;;;5043581;28;20636;-48
2023/02/19 01:35:57;;;;;;;3.53;3.10;;;15.60;67.10;;;;;;5032744;28;20443;-48
2023/02/19 01:38:23;;;;;;;3.10;2.90;;;15.60;66.40;;;;;;5033226;28;20415;-48
2023/02/19 01:40:59;;;;;;;2.90;2.70;;;15.70;66.50;;;;;;5033095;28;20224;-47
2023/02/19 01:43:26;;;;;;;3.33;3.13;;;15.70;66.50;;;;;;5032828;28;20201;-48
2023/02/19 01:45:52;;;;;;;3.67;3.37;;;15.70;66.50;;;;;;5031147;28;20420;-47
2023/02/19 01:48:36;;;;;;;3.20;2.97;;;15.60;66.20;;;;;;5033034;28;20431;-48
2023/02/19 01:51:05;;;;;;;4.37;3.40;;;15.70;66.50;;;;;;5032686;28;20532;-48
2023/02/19 01:53:42;;;;;;;4.17;3.87;;;15.70;66.50;;;;;;5032674;28;20424;-48
2023/02/19 01:56:09;;;;;;;3.57;3.30;;;15.70;66.40;;;;;;5032426;28;20513;-49
2023/02/19 01:58:36;;;;;;;3.63;3.33;;;15.60;66.40;;;;;;5032585;28;20428;-48
2023/02/19 02:01:04;;;;;;;3.30;3.00;;;15.60;66.40;;;;;;5032795;28;20478;-48
2023/02/19 02:03:31;;;;;;;3.87;3.57;;;15.60;66.50;;;;;;5032507;28;20420;-48
2023/02/19 02:06:20;;;;;;;3.23;3.03;;;15.60;66.60;;;;;;5032188;28;20487;-48
2023/02/19 02:11:33;;;;;;;3.27;3.07;;;15.60;66.50;;;;;;5032556;28;20490;-47
2023/02/19 02:13:59;;;;;;;3.40;3.10;;;15.50;66.70;;;;;;5030856;28;20424;-48
2023/02/19 02:16:55;;;;;;;3.10;2.90;;;15.50;66.70;;;;;;5032090;28;20431;-48
2023/02/19 02:20:18;;;;;;;3.13;2.77;;;15.50;66.60;;;;;;5021925;28;20455;-47
2023/02/19 02:23:15;;;;;;;3.00;2.80;;;15.50;66.90;;;;;;5028392;28;20443;-48
2023/02/19 02:26:17;;;;;;;6.03;3.20;;;15.40;67.00;;;;;;5031518;28;20490;-47
2023/02/19 02:28:52;;;;;;;3.50;3.20;;;15.30;67.80;;;;;;5032794;28;20436;-48
2023/02/19 02:31:26;;;;;;;3.10;2.70;;;15.10;68.20;;;;;;5032265;28;20502;-48
2023/02/19 02:34:07;;;;;;;2.90;2.70;;;15.10;68.30;;;;;;5043003;28;20427;-48
2023/02/19 02:36:38;;;;;;;2.80;2.60;;;15.00;68.60;;;;;;5032439;28;20503;-48
2023/02/19 02:39:08;;;;;;;2.97;2.67;;;14.90;69.40;;;;;;5032028;28;20799;-47
2023/02/19 02:41:33;;;;;;;2.70;2.50;;;15.00;69.30;;;;;;5030727;28;20459;-47
2023/02/19 02:43:59;;;;;;;2.40;2.20;;;14.90;69.20;;;;;;5031500;28;20489;-50
2023/02/19 02:46:33;;;;;;;3.13;2.00;;;14.50;70.60;;;;;;5031800;28;20243;-50
2023/02/19 02:49:04;;;;;;;2.60;2.10;;;14.40;71.40;;;;;;5031810;28;20224;-49
2023/02/19 02:51:35;;;;;;;1.93;1.70;;;14.60;71.10;;;;;;5031574;28;20479;-48
2023/02/19 02:57:00;;;;;;;2.10;2.00;;;14.50;70.50;;;;;;5031642;28;20570;-48
2023/02/19 02:59:32;;;;;;;1.97;1.73;;;14.50;70.50;;;;;;5031491;28;20428;-47
2023/02/19 03:02:21;;;;;;;1.80;1.70;;;14.50;71.10;;;;;;5031526;28;20458;-47
2023/02/19 03:08:13;;;;;;;1.87;1.73;;;14.50;70.70;;;;;;5030104;28;20447;-48
2023/02/19 03:10:55;;;;;;;3.43;1.67;;;14.40;71.00;;;;;;5031155;28;20447;-48
2023/02/19 03:19:19;;;;;;;1.70;1.60;;;14.00;72.70;;;;;;5030941;28;20528;-48
2023/02/19 03:21:57;;;;;;;2.10;2.00;;;14.20;72.90;;;;;;5030934;28;20427;-48
2023/02/19 03:27:14;;;;;;;2.30;2.07;;;14.30;72.80;;;;;;5031260;28;20466;-47
2023/02/19 03:29:43;;;;;;;1.77;1.67;;;14.40;72.40;;;;;;5031270;28;20771;-48
2023/02/19 03:32:17;;;;;;;2.20;1.83;;;14.30;73.00;;;;;;5030492;28;20495;-48
2023/02/19 03:34:58;;;;;;;3.80;2.17;;;14.20;73.40;;;;;;5018554;28;20486;-47
2023/02/19 03:38:08;;;;;;;3.50;2.00;;;14.20;73.80;;;;;;5030213;28;20799;-47
2023/02/19 03:40:56;;;;;;;1.70;1.60;;;14.10;74.30;;;;;;5008528;28;20532;-48
2023/02/19 03:43:39;;;;;;;2.07;1.97;;;14.20;74.10;;;;;;5030688;28;20428;-48
2023/02/19 03:46:50;;;;;;;2.40;2.20;;;14.10;74.80;;;;;;5030017;28;20436;-48
2023/02/19 03:49:39;;;;;;;2.13;2.03;;;14.20;74.20;;;;;;5028038;28;20977;-47
2023/02/19 03:52:33;;;;;;;2.13;2.03;;;14.10;74.40;;;;;;5030587;28;20488;-48
2023/02/19 03:55:24;;;;;;;2.13;1.93;;;14.10;74.90;;;;;;5025060;28;20435;-47
2023/02/19 03:58:03;;;;;;;1.77;1.67;;;14.10;74.70;;;;;;5030511;28;20432;-48
2023/02/19 04:00:46;;;;;;;1.83;1.73;;;14.00;75.70;;;;;;5028698;28;20866;-48
2023/02/19 04:03:37;;;;;;;1.90;1.80;;;14.10;75.30;;;;;;5030363;28;20435;-49
2023/02/19 04:06:16;;;;;;;2.30;1.70;;;14.30;74.70;;;;;;5021382;28;20444;-48
2023/02/19 04:08:46;;;;;;;2.10;1.70;;;14.20;74.70;;;;;;5030239;28;20436;-47
2023/02/19 04:11:14;;;;;;;2.07;1.97;;;14.20;74.40;;;;;;5030111;28;20483;-48
2023/02/19 04:13:49;;;;;;;1.57;1.47;;;14.30;74.30;;;;;;5030255;28;20769;-47
2023/02/19 04:16:21;;;;;;;1.90;1.70;;;14.40;74.00;;;;;;5029742;28;20428;-47
2023/02/19 04:18:51;;;;;;;2.80;2.17;;;14.50;73.70;;;;;;5030196;28;20513;-47
2023/02/19 04:21:18;;;;;;;4.83;2.17;;;14.50;73.20;;;;;;5030011;28;20420;-47
2023/02/19 04:23:44;;;;;;;2.07;1.40;;;14.60;72.80;;;;;;5030000;28;20514;-47
2023/02/19 04:26:12;;;;;;;2.20;2.00;;;14.70;72.50;;;;;;5029690;28;20428;-48
2023/02/19 04:28:38;;;;;;;1.47;1.37;;;14.70;72.20;;;;;;5028498;28;20427;-48
2023/02/19 04:31:04;;;;;;;1.50;1.40;;;14.80;72.20;;;;;;5029471;28;21026;-47
2023/02/19 04:33:30;;;;;;;1.93;1.43;;;14.80;72.70;;;;;;5040433;28;20419;-49
2023/02/19 04:35:56;;;;;;;1.70;1.60;;;14.70;71.90;;;;;;5030048;28;20949;-47
2023/02/19 04:38:21;;;;;;;2.23;1.50;;;14.80;71.60;;;;;;5029995;28;20671;-48
2023/02/19 04:40:47;;;;;;;1.50;1.27;;;14.80;71.50;;;;;;5029978;28;20205;-47
2023/02/19 04:43:13;;;;;;;1.37;1.30;;;14.60;71.80;;;;;;5029974;28;20584;-47
2023/02/19 04:45:39;;;;;;;1.50;1.40;;;14.60;72.40;;;;;;5029458;28;20539;-48
2023/02/19 04:48:05;;;;;;;1.07;1.07;;;14.40;73.00;;;;;;5031941;28;20205;-48
2023/02/19 04:50:30;;;;;;;2.03;1.30;;;14.20;73.40;;;;;;5033940;28;20196;-49
2023/02/19 04:52:56;;;;;;;2.50;1.07;;;14.00;74.80;;;;;;5034232;28;20675;-47
2023/02/19 04:55:22;;;;;;;1.20;1.10;;;14.00;74.70;;;;;;5031914;28;20228;-49
2023/02/19 04:57:47;;;;;;;1.27;1.17;;;14.10;74.20;;;;;;5033815;28;20197;-48
2023/02/19 05:00:13;;;;;;;1.30;1.20;;;14.10;74.10;;;;;;5033639;28;20207;-48
2023/02/19 05:02:39;;;;;;;1.20;1.10;;;14.10;74.10;;;;;;5033698;28;20526;-47
2023/02/19 05:05:05;;;;;;;1.00;0.90;;;14.10;73.80;;;;;;5033104;28;20428;-47
2023/02/19 05:07:30;;;;;;;1.60;0.87;;;14.20;73.40;;;;;;5033474;28;20192;-48
2023/02/19 05:09:58;;;;;;;1.20;1.10;;;14.10;73.50;;;;;;5033417;28;20197;-47
2023/02/19 05:12:24;;;;;;;1.10;1.00;;;14.00;73.30;;;;;;5033873;28;20294;-48
2023/02/19 05:14:50;;;;;;;1.13;0.90;;;14.10;73.00;;;;;;5032882;28;21050;-48
2023/02/19 05:17:15;;;;;;;0.90;0.80;;;14.20;71.90;;;;;;5033698;28;20522;-47
2023/02/19 05:19:41;;;;;;;0.60;0.60;;;14.00;71.80;;;;;;5033274;28;20193;-48
2023/02/19 05:22:06;;;;;;;1.00;0.80;;;13.90;71.90;;;;;;5031919;28;20193;-47
2023/02/19 05:24:32;;;;;;;2.80;0.90;;;14.00;72.00;;;;;;5032769;28;20254;-48
2023/02/19 05:26:58;;;;;;;0.77;0.63;;;14.00;71.00;;;;;;5033443;28;20201;-47
2023/02/19 05:29:23;;;;;;;0.60;0.50;;;13.90;70.70;;;;;;5033537;28;20640;-47
2023/02/19 05:31:49;;;;;;;0.73;0.63;;;13.70;69.80;;;;;;5032802;28;20240;-47
2023/02/19 05:34:15;;;;;;;1.10;0.80;;;13.50;70.50;;;;;;5043536;28;20202;-47
2023/02/19 05:36:40;;;;;;;1.37;0.60;;;13.50;71.10;;;;;;5033042;28;20189;-47
2023/02/19 05:39:08;;;;;;;0.83;0.83;;;13.30;70.70;;;;;;5032882;28;20205;-47
2023/02/19 05:41:33;;;;;;;0.60;0.60;;;13.20;71.30;;;;;;5033034;28;20228;-47
2023/02/19 05:43:59;;;;;;;0.60;0.60;;;13.10;72.30;;;;;;5032339;28;20869;-48
2023/02/19 05:46:28;;;;;;;0.60;0.60;;;13.00;72.90;;;;;;5031637;28;20706;-48
2023/02/19 05:48:54;;;;;;;0.67;0.67;;;13.10;73.00;;;;;;5031590;28;20554;-47
2023/02/19 05:51:22;;;;;;;0.80;0.60;;;13.10;72.40;;;;;;5032936;28;20471;-48
2023/02/19 05:53:48;;;;;;;0.63;0.57;;;13.10;71.90;;;;;;5032254;28;20817;-48
2023/02/19 05:56:36;;;;;;;1.37;0.60;;;13.20;72.00;;;;;;5032607;28;21124;-48
2023/02/19 05:59:13;;;;;;;0.80;0.70;;;13.20;71.50;;;;;;5031951;28;20428;-47
2023/02/19 06:01:38;;;;;;;0.80;0.67;;;13.10;72.00;;;;;;5032534;28;20432;-48
2023/02/19 06:04:04;;;;;;;0.60;0.60;;;13.00;71.80;;;;;;5032099;28;20432;-47
2023/02/19 06:06:30;;;;;;;1.57;0.50;;;12.90;71.50;;;;;;5032498;28;20766;-47
2023/02/19 06:08:56;;;;;;;1.13;0.60;;;13.00;72.30;;;;;;5032588;28;20428;-47
2023/02/19 06:11:22;;;;;;;0.70;0.50;;;13.00;71.10;;;;;;5032663;28;20228;-47
2023/02/19 06:13:49;;;;;;;1.23;0.67;;;13.00;71.60;;;;;;5032067;28;20652;-47
2023/02/19 06:16:16;;;;;;;0.50;0.50;;;12.50;71.30;;;;;;5030725;28;20866;-48
2023/02/19 06:18:42;;;;;;;0.57;0.53;;;12.70;72.60;;;;;;5032204;28;20439;-47
2023/02/19 06:21:10;;;;;;;0.70;0.70;;;12.80;72.70;;;;;;5032143;28;20957;-47
2023/02/19 06:23:36;;;;;;;0.50;0.50;;;12.80;72.00;;;;;;5032165;28;20831;-48
2023/02/19 06:26:12;;;;;;;0.50;0.40;;;13.00;70.80;;;;;;5032173;28;20436;-47
2023/02/19 06:28:39;;;;;;;0.60;0.60;;;12.70;70.80;;;;;;5032532;28;20428;-48
2023/02/19 06:31:06;;;;;;;0.57;0.50;;;12.80;70.70;;;;;;5031684;28;20491;-47
2023/02/19 06:33:32;;;;;;;0.60;0.60;;;12.90;70.90;;;;;;5042708;28;20419;-47
2023/02/19 06:36:00;;;;;;;0.70;0.50;;;12.90;70.30;;;;;;5018650;28;20455;-47
2023/02/19 06:38:26;;;;;;;0.50;0.50;;;12.80;69.70;;;;;;5031732;28;20513;-47
2023/02/19 06:40:52;;;;;;;0.50;0.40;;;12.70;70.00;;;;;;5032117;28;20423;-48
2023/02/19 06:43:18;;;;;;;0.50;0.50;;;13.00;69.50;;;;;;5030052;28;20428;-49
2023/02/19 06:45:43;;;;;;;1.00;0.60;;;12.70;68.40;;;;;;5031353;28;20276;-47
2023/02/19 06:48:09;;;;;;;0.50;0.50;;;12.70;68.90;;;;;;5031627;28;20205;-48
2023/02/19 06:50:34;;;;;;;0.60;0.53;;;12.70;69.00;;;;;;5031784;28;20672;-50
2023/02/19 06:53:00;;;;;;;0.60;0.50;;;12.70;69.20;;;;;;5031752;28;20248;-47
2023/02/19 06:55:25;;;;;;;0.60;0.60;;;12.80;69.30;;;;;;5031258;28;20271;-47
2023/02/19 06:57:51;;;;;;;0.80;0.60;;;12.80;68.60;;;;;;5031462;28;20231;-48
2023/02/19 07:00:17;;;;;;;1.60;1.03;;;13.10;68.30;;;;;;5031356;28;20197;-47
2023/02/19 07:02:42;;;;;;;0.60;0.50;;;13.00;66.90;;;;;;5031500;28;20276;-48
2023/02/19 07:05:08;;;;;;;0.60;0.60;;;13.30;66.50;;;;;;5030920;28;20667;-47
2023/02/19 07:07:34;;;;;;;2.20;0.63;;;12.70;65.60;;;;;;5031316;28;20689;-48
2023/02/19 07:09:59;;;;;;;0.60;0.60;;;13.00;66.70;;;;;;5029583;28;20267;-47
2023/02/19 07:12:25;;;;;;;1.40;1.30;;;12.90;65.70;;;;;;5030396;28;20223;-48
2023/02/19 07:14:50;;;;;;;1.07;1.03;;;12.80;64.60;;;;;;5030799;28;20197;-47
2023/02/19 07:17:16;;;;;;;0.90;0.90;;;12.60;65.20;;;;;;5031270;28;20193;-48
2023/02/19 07:19:41;;;;;;;0.70;0.70;;;12.60;66.20;;;;;;5031128;28;20200;-47
2023/02/19 07:22:07;;;;;;;0.87;0.87;;;12.70;66.10;;;;;;5031394;28;20263;-47
2023/02/19 07:24:33;;;;;;;0.93;0.70;;;12.70;66.00;;;;;;5030647;28;20204;-47
2023/02/19 07:26:58;;;;;;;1.07;0.97;;;12.60;66.10;;;;;;5031301;28;20193;-49
2023/02/19 07:29:24;;;;;;;3.73;3.43;;;12.70;66.40;;;;;;5031008;28;20228;-47
2023/02/19 07:31:49;;;;;;;1.10;1.07;;;13.00;65.50;;;;;;5031004;28;20249;-48
2023/02/19 07:34:15;;;;;;;0.80;0.80;;;13.10;65.20;;;;;;5040836;28;20604;-47
2023/02/19 07:36:40;;;;;;;1.00;1.00;;;12.90;64.80;;;;;;5028117;28;20196;-48
2023/02/19 07:39:06;;;;;;;1.30;1.20;;;12.70;65.50;;;;;;5030654;28;20243;-47
2023/02/19 07:41:31;;;;;;;1.37;1.03;;;12.70;66.10;;;;;;5030731;28;20319;-47
2023/02/19 07:43:57;;;;;;;1.00;1.00;;;12.80;66.30;;;;;;5030089;28;20657;-47
2023/02/19 07:46:24;;;;;;;1.20;1.10;;;12.90;65.90;;;;;;5030788;28;20192;-47
2023/02/19 07:48:49;;;;;;;0.80;0.80;;;13.00;65.10;;;;;;5030642;28;20443;-49
2023/02/19 07:51:17;;;;;;;1.60;1.20;;;12.80;65.70;;;;;;5030626;28;20855;-47
2023/02/19 07:53:49;;;;;;;1.20;1.10;;;12.90;65.60;;;;;;5028908;28;20614;-47
2023/02/19 07:56:15;;;;;;;1.13;1.03;;;12.80;65.60;;;;;;5030479;28;20432;-48
2023/02/19 07:58:41;;;;;;;1.27;1.13;;;12.90;65.10;;;;;;5030518;28;20427;-48
2023/02/19 08:02:58;;;;;;;1.60;1.30;;;13.10;65.10;;;;;;5030557;28;20428;-48
2023/02/19 08:04:06;;;;;;;1.23;1.13;;;13.20;64.90;;;;;;5028448;28;20197;-47
2023/02/19 08:06:32;;;;;;;1.40;1.30;;;13.30;64.90;;;;;;5030324;28;20420;-47
2023/02/19 08:08:58;;;;;;;1.63;1.30;;;13.40;64.10;;;;;;5030309;28;20612;-47
2023/02/19 08:14:07;;;;;;;1.97;1.50;;;13.30;64.00;;;;;;5029929;28;20567;-48
2023/02/19 08:16:33;;;;;;;1.50;1.23;;;13.20;64.50;;;;;;5030201;28;20416;-48
2023/02/19 08:18:59;;;;;;;1.93;1.60;;;12.90;64.20;;;;;;5030234;28;20239;-48
2023/02/19 08:21:25;;;;;;;1.60;1.50;;;13.00;65.40;;;;;;5030082;28;20193;-49
2023/02/19 08:23:50;;;;;;;2.37;1.57;;;13.20;65.10;;;;;;5029435;28;20227;-49
2023/02/19 08:26:16;;;;;;;1.90;1.80;;;13.30;64.60;;;;;;5030063;28;20452;-47
2023/02/19 08:28:42;;;;;;;1.83;1.30;;;13.20;63.70;;;;;;5030227;28;20225;-47
2023/02/19 08:31:10;;;;;;;1.67;1.57;;;13.10;64.00;;;;;;5028366;28;22922;-47
2023/02/19 08:33:38;;;;;;;1.23;1.13;;;13.00;64.80;;;;;;5040024;28;20626;-47
2023/02/19 08:36:06;;;;;;;1.70;1.50;;;12.80;65.50;;;;;;5030174;28;20437;-46
2023/02/19 08:38:34;;;;;;;1.23;1.13;;;12.80;65.70;;;;;;5029692;28;20475;-47
2023/02/19 08:41:03;;;;;;;1.67;1.53;;;12.90;65.90;;;;;;5029879;28;20433;-48
2023/02/19 08:43:28;;;;;;;1.23;1.13;;;12.80;66.10;;;;;;5029503;28;20424;-47
2023/02/19 08:45:54;;;;;;;2.33;1.50;;;13.00;65.70;;;;;;5030044;28;20981;-48
2023/02/19 08:48:20;;;;;;;1.50;1.40;;;12.90;65.70;;;;;;5029795;28;20228;-48
2023/02/19 08:50:56;;;;;;;1.80;1.70;;;13.00;65.60;;;;;;5029796;28;20194;-47
2023/02/19 08:53:23;;;;;;;1.23;1.13;;;13.00;65.50;;;;;;5029682;28;20196;-48
2023/02/19 08:55:48;;;;;;;1.50;1.40;;;13.20;65.00;;;;;;5029647;28;20424;-47
2023/02/19 08:58:14;;;;;;;1.43;1.03;;;13.10;63.60;;;;;;5028046;28;20431;-48
2023/02/19 09:00:40;;;;;;;1.33;1.20;;;13.10;63.60;;;;;;5030075;28;20196;-47
2023/02/19 09:03:05;;;;;;;1.43;0.90;;;13.10;63.20;;;;;;5029671;28;20280;-47
2023/02/19 09:05:31;;;;;;;2.93;1.33;;;13.00;63.00;;;;;;5029226;28;20732;-47
2023/02/19 09:07:57;;;;;;;1.00;0.83;;;13.00;63.20;;;;;;5029753;28;20193;-47
2023/02/19 09:10:22;;;;;;;0.90;0.80;;;13.00;63.30;;;;;;5030005;28;20486;-47
2023/02/19 09:12:48;;;;;;;1.00;0.60;;;13.20;62.70;;;;;;5029515;28;20312;-47
2023/02/19 09:15:14;;;;;;;1.53;1.00;;;13.40;62.50;;;;;;5029228;28;20212;-47
2023/02/19 09:17:39;;;;;;;1.80;1.20;;;13.60;61.90;;;;;;5029638;28;20208;-47
2023/02/19 09:20:05;;;;;;;1.10;0.90;;;13.80;61.60;;;;;;5029774;28;20280;-47
2023/02/19 09:22:31;;;;;;;0.80;0.80;;;13.70;60.10;;;;;;5029533;28;20727;-47
2023/02/19 09:24:56;;;;;;;1.10;1.00;;;13.60;60.00;;;;;;5027809;28;20224;-47
2023/02/19 09:27:22;;;;;;;1.60;1.50;;;13.40;60.20;;;;;;5029549;28;20276;-47
2023/02/19 09:29:47;;;;;;;1.43;1.10;;;13.20;61.10;;;;;;5029496;28;20225;-48
2023/02/19 09:32:13;;;;;;;1.50;1.10;;;13.20;61.60;;;;;;5029110;28;20239;-47
2023/02/19 09:34:39;;;;;;;1.07;1.00;;;13.40;61.60;;;;;;5019793;28;20556;-48
2023/02/19 09:37:05;;;;;;;1.23;1.03;;;13.30;61.40;;;;;;5033139;28;20205;-47
2023/02/19 09:39:31;;;;;;;1.30;0.93;;;13.40;61.90;;;;;;5033231;28;20193;-49
2023/02/19 09:42:17;;;;;;;1.43;1.30;;;13.50;60.60;;;;;;5033314;28;20506;-48
2023/02/19 09:44:47;;;;;;;1.60;1.27;;;13.50;60.30;;;;;;5032507;28;20424;-49
2023/02/19 09:47:22;;;;;;;4.13;1.53;;;13.30;60.30;;;;;;5032822;28;20435;-48
2023/02/19 09:49:51;;;;;;;3.07;1.40;;;13.20;60.10;;;;;;5033050;28;20431;-47
2023/02/19 09:52:32;;;;;;;2.47;1.10;;;13.20;60.20;;;;;;5031304;28;20483;-48
2023/02/19 09:55:02;;;;;;;1.20;0.80;;;13.30;59.90;;;;;;5032357;28;20456;-49
2023/02/19 09:57:31;;;;;;;1.53;1.20;;;13.40;59.30;;;;;;5032784;28;20416;-48
2023/02/19 10:00:07;;;;;;;1.80;1.67;;;13.50;59.40;;;;;;5032577;28;20482;-47
2023/02/19 10:02:32;;;;;;;2.63;1.73;;;13.60;58.90;;;;;;5032446;28;20949;-47
2023/02/19 10:04:58;;;;;;;2.00;1.90;;;13.70;58.30;;;;;;5031989;28;20428;-48
2023/02/19 10:07:33;;;;;;;0.80;0.70;;;13.90;57.90;;;;;;5032990;28;20261;-48
2023/02/19 10:10:21;;;;;;;1.47;1.37;;;14.00;57.10;;;;;;5032234;28;20478;-48
2023/02/19 10:12:49;;;;;;;2.70;1.33;;;14.00;56.90;;;;;;5032212;28;20962;-48
2023/02/19 10:15:27;;;;;;;1.80;1.30;;;14.10;56.40;;;;;;5032006;28;20438;-47
2023/02/19 10:17:53;;;;;;;1.80;1.10;;;14.00;56.30;;;;;;5030802;28;20428;-47
2023/02/19 10:20:23;;;;;;;3.90;1.23;;;14.20;55.60;;;;;;5030970;28;20498;-48
2023/02/19 10:23:02;;;;;;;2.93;1.50;;;14.20;55.10;;;;;;5032242;28;20193;-48
2023/02/19 10:25:28;;;;;;;2.10;1.10;;;14.20;54.50;;;;;;5031690;28;20502;-47
2023/02/19 10:27:58;;;;;;;2.10;1.07;;;14.30;54.90;;;;;;5032507;28;20551;-49
2023/02/19 10:30:27;;;;;;;1.53;1.00;;;14.40;53.80;;;;;;5032075;28;20478;-50
2023/02/19 10:33:01;;;;;;;3.50;1.37;;;14.20;53.80;;;;;;5037750;28;20540;-47
2023/02/19 10:35:28;;;;;;;5.37;1.30;;;14.20;54.10;;;;;;5035606;28;20873;-48
2023/02/19 10:37:55;;;;;;;2.80;1.10;;;14.20;53.30;;;;;;5031991;28;20458;-49
2023/02/19 10:40:24;;;;;;;3.10;0.90;;;14.00;52.60;;;;;;5032332;28;20941;-48
2023/02/19 10:42:54;;;;;;;4.27;1.00;;;14.30;53.50;;;;;;5032251;28;20842;-48
2023/02/19 10:45:30;;;;;;;4.37;0.93;;;14.40;53.60;;;;;;5029970;28;20435;-48
2023/02/19 10:47:56;;;;;;;4.83;1.10;;;14.30;53.10;;;;;;5031641;28;20470;-48
2023/02/19 10:50:28;;;;;;;1.80;1.07;;;14.40;53.50;;;;;;5031711;28;20869;-48
2023/02/19 10:52:57;;;;;;;1.37;1.07;;;14.10;53.10;;;;;;5031717;28;20491;-48
2023/02/19 10:55:33;;;;;;;1.30;0.90;;;14.10;53.30;;;;;;5031415;28;20932;-48
2023/02/19 10:58:24;;;;;;;2.13;1.10;;;14.10;53.00;;;;;;5031491;28;20431;-48
2023/02/19 11:01:17;;;;;;;1.30;0.90;;;14.20;53.30;;;;;;5031572;28;20530;-49
2023/02/19 11:03:43;;;;;;;1.77;0.70;;;14.10;53.40;;;;;;5031520;28;20788;-48
2023/02/19 11:06:10;;;;;;;3.53;1.40;;;14.20;54.00;;;;;;5031653;28;20522;-48
2023/02/19 11:08:54;;;;;;;0.90;0.90;;;14.50;53.90;;;;;;5031508;28;20201;-48
2023/02/19 11:11:37;;;;;;;1.60;1.10;;;14.60;53.30;;;;;;5029799;28;20478;-48
2023/02/19 11:14:23;;;;;;;1.97;1.10;;;14.70;53.10;;;;;;5031048;28;20811;-48
2023/02/19 11:16:52;;;;;;;3.60;1.30;;;14.60;53.30;;;;;;5031002;28;20918;-47
2023/02/19 11:19:28;;;;;;;1.47;1.30;;;14.30;53.20;;;;;;5031065;28;20441;-49
2023/02/19 11:21:54;;;;;;;2.20;1.10;;;13.90;53.60;;;;;;5031149;28;20442;-47
2023/02/19 11:24:40;;;;;;;2.53;1.10;;;13.90;54.80;;;;;;5030866;28;20428;-48
2023/02/19 11:27:20;;;;;;;4.43;1.13;;;14.20;55.20;;;;;;5030941;28;20795;-48
2023/02/19 11:29:45;;;;;;;1.37;1.17;;;14.40;54.10;;;;;;5031140;28;20430;-48
2023/02/19 11:32:24;;;;;;;1.50;0.97;;;14.30;53.80;;;;;;5030420;28;20487;-48
2023/02/19 11:34:49;;;;;;;1.57;1.10;;;14.50;53.90;;;;;;5021215;28;20193;-50
2023/02/19 11:37:19;;;;;;;2.30;1.10;;;14.40;53.80;;;;;;5030892;28;20439;-50
2023/02/19 11:39:48;;;;;;;2.37;1.40;;;14.10;54.20;;;;;;5029768;28;20648;-48
2023/02/19 11:42:29;;;;;;;3.17;1.00;;;14.30;54.20;;;;;;5031027;28;20432;-48
2023/02/19 11:45:04;;;;;;;4.30;1.40;;;14.30;54.00;;;;;;5030290;28;20481;-49
2023/02/19 11:47:51;;;;;;;3.90;1.67;;;14.30;54.30;;;;;;5030612;28;20484;-50
2023/02/19 11:50:28;;;;;;;1.10;1.03;;;14.10;53.90;;;;;;5030526;28;20438;-48
2023/02/19 11:53:15;;;;;;;1.87;1.10;;;14.30;54.20;;;;;;5030425;28;20479;-48
2023/02/19 11:55:46;;;;;;;3.70;1.33;;;13.90;53.90;;;;;;5030608;28;20424;-50
2023/02/19 11:58:12;;;;;;;0.87;0.73;;;14.00;54.30;;;;;;5029953;28;20497;-48
2023/02/19 12:00:52;;;;;;;3.33;1.40;;;13.90;54.20;;;;;;5030500;28;20428;-50
2023/02/19 12:03:39;;;;;;;1.27;1.03;;;13.90;54.30;;;;;;5030106;28;20276;-49
2023/02/19 12:06:16;;;;;;;4.23;0.80;;;14.30;54.80;;;;;;5023126;28;20470;-49
2023/02/19 12:09:03;;;;;;;1.00;0.90;;;14.50;54.00;;;;;;5030347;28;20432;-49
2023/02/19 12:11:40;;;;;;;2.57;1.23;;;14.50;53.40;;;;;;5030058;28;20514;-47
2023/02/19 12:14:24;;;;;;;1.53;1.00;;;14.50;53.20;;;;;;5029961;28;20424;-48
2023/02/19 12:17:07;;;;;;;3.77;1.23;;;14.60;53.20;;;;;;5030362;28;20969;-49
2023/02/19 12:19:57;;;;;;;1.20;1.10;;;14.60;53.40;;;;;;5030334;28;20795;-48
2023/02/19 12:22:32;;;;;;;2.57;1.17;;;14.60;53.40;;;;;;5030093;28;20439;-48
2023/02/19 12:25:09;;;;;;;1.20;0.90;;;14.70;53.50;;;;;;5030049;28;20522;-48
2023/02/19 12:27:51;;;;;;;1.90;0.93;;;14.60;53.20;;;;;;5030410;28;20443;-48
2023/02/19 12:30:35;;;;;;;1.30;1.20;;;14.50;52.90;;;;;;5030001;28;20532;-49
2023/02/19 12:33:17;;;;;;;3.60;1.27;;;14.50;53.00;;;;;;5034313;28;20544;-50
2023/02/19 12:36:01;;;;;;;1.47;1.20;;;14.40;52.60;;;;;;5032167;28;20443;-48
2023/02/19 12:38:27;;;;;;;4.33;1.83;;;14.40;52.60;;;;;;5030096;28;20512;-48
2023/02/19 12:41:01;;;;;;;1.40;1.30;;;14.50;53.00;;;;;;5030060;28;20503;-48
2023/02/19 12:43:29;;;;;;;6.27;1.17;;;14.50;53.80;;;;;;5029495;28;20644;-48
2023/02/19 12:46:32;;;;;;;2.07;0.93;;;14.60;53.00;;;;;;5030071;28;20518;-49
2023/02/19 12:49:06;;;;;;;2.33;1.17;;;15.10;52.90;;;;;;5018386;28;20439;-48
2023/02/19 12:51:47;;;;;;;1.53;1.27;;;15.10;52.20;;;;;;5029885;28;20468;-49
2023/02/19 12:54:26;;;;;;;1.13;1.00;;;14.70;51.90;;;;;;5029553;28;20443;-47
2023/02/19 12:57:17;;;;;;;2.40;1.47;;;14.70;52.80;;;;;;5029854;28;20436;-48
2023/02/19 12:59:58;;;;;;;2.73;1.40;;;15.00;52.30;;;;;;5028426;28;20784;-48
2023/02/19 13:02:32;;;;;;;1.90;1.30;;;15.00;52.10;;;;;;5030036;28;20521;-49
2023/02/19 13:05:09;;;;;;;1.03;0.90;;;15.10;51.70;;;;;;5029330;28;20428;-48
2023/02/19 13:07:37;;;;;;;2.80;1.07;;;14.90;51.70;;;;;;5029597;28;20593;-48
2023/02/19 13:10:19;;;;;;;1.93;1.10;;;14.90;52.20;;;;;;5033501;28;20535;-48
2023/02/19 13:12:47;;;;;;;2.00;1.40;;;15.10;52.10;;;;;;5033579;28;20598;-49
2023/02/19 13:15:17;;;;;;;1.47;0.97;;;15.10;52.50;;;;;;5033191;28;20824;-48
2023/02/19 13:17:54;;;;;;;2.77;1.43;;;14.90;51.60;;;;;;5033345;28;20931;-48
2023/02/19 13:20:31;;;;;;;5.70;1.50;;;15.00;51.50;;;;;;5033727;28;20470;-47
2023/02/19 13:26:05;;;;;;;2.77;1.20;;;14.70;51.70;;;;;;5031765;28;20493;-49
2023/02/19 13:28:51;;;;;;;1.73;1.43;;;14.90;52.80;;;;;;5033305;28;20427;-48
2023/02/19 13:31:23;;;;;;;1.37;1.00;;;15.00;52.30;;;;;;5033396;28;20484;-49